Overview Statistics Trail Chart Weather Telemetry Raw packets
 

This is the latest recevied weather packets stored in our database for station/object 9A7DI-13. If no packets are shown the sender has not sent any weather packets the latest 10 day(s).

<< 47 48 49 50 51 52 53 >>
Time Temp. Humidity Pressure Rain* Wind** Luminosity Snow
1787936814 32.22° C 42% 1020.2 hPa - - - -
1787936214 31.67° C 44% 1020.2 hPa - - - -
1787935614 32.22° C 43% 1020.4 hPa - - - -
1787935014 32.22° C 43% 1020.5 hPa - - - -
1787934414 32.78° C 43% 1020.6 hPa - - - -
1787933214 33.89° C 39% 1020.7 hPa - - - -
1787932614 33.89° C 37% 1020.7 hPa - - - -
1787932014 34.44° C 37% 1020.8 hPa - - - -
1787931414 35° C 36% 1020.9 hPa - - - -
1787930814 35° C 35% 1020.9 hPa - - - -
1787930214 35° C 36% 1021.1 hPa - - - -
1787929614 35° C 33% 1021.2 hPa - - - -
1787929014 35° C 33% 1021.2 hPa - - - -
1787928414 35° C 33% 1021.2 hPa - - - -
1787927814 35° C 35% 1021.4 hPa - - - -
1787927214 35° C 33% 1021.4 hPa - - - -
1787926615 35° C 34% 1021.6 hPa - - - -
1787926015 35° C 34% 1021.6 hPa - - - -
1787925414 35° C 34% 1021.7 hPa - - - -
1787924814 34.44° C 35% 1021.8 hPa - - - -
1787924214 34.44° C 34% 1021.8 hPa - - - -
1787923614 34.44° C 34% 1021.9 hPa - - - -
1787923014 34.44° C 35% 1022.1 hPa - - - -
1787922414 34.44° C 34% 1022.2 hPa - - - -
1787921823 34.44° C 35% 1022.3 hPa - - - -

* Rain since midnight (hover to see other rain measurements)
** Current wind speed in m/s (hover to see current wind gust speed)